METAR AND TAF INFORMATION
METAR FOR UADD
ADDS - METARS form results

(0414 UTC 26 August 2019)
Data provider http://aviationweather.gov/metar/data/
 
METAR text: UADD 260400Z 22003MPS 170V260 9999 NSC 27/06 Q1011 R13/0///65 NOSIG RMK QFE702/0936
Conditions at: UADD (TARAZ , KZ) observed 0400 UTC 26 August 2019
Temperature: 27.0°C (81°F)
Dewpoint: 6.0°C (43°F) [RH = 26%]
Pressure (altimeter): 29.85 inches Hg (1011.0 mb)
Winds: from the SW (220 degrees) at 7 MPH (6 knots; 3.1 m/s)
Visibility: 6 or more miles (10+ km)
Ceiling: at least 12,000 feet AGL
Clouds: sky clear below 12,000 feet AGL
Weather: no significant weather observed at this time

METAR text: UADD 260330Z 22004MPS 200V260 9999 NSC 25/06 Q1011 R13/0///65 NOSIG RMK QFE702/0936
Conditions at: UADD (TARAZ , KZ) observed 0330 UTC 26 August 2019
Temperature: 25.0°C (77°F)
Dewpoint: 6.0°C (43°F) [RH = 30%]
Pressure (altimeter): 29.85 inches Hg (1011.0 mb)
Winds: from the SW (220 degrees) at 9 MPH (8 knots; 4.1 m/s)
Visibility: 6 or more miles (10+ km)
Ceiling: at least 12,000 feet AGL
Clouds: sky clear below 12,000 feet AGL
Weather: no significant weather observed at this time

Forecast for: UADD (TARAZ , KZ)
Text: TAF UADD 260200Z 2603/2612 36003G08MPS 9999 NSC
Forecast period: 0300 to 1200 UTC 26 August 2019
Forecast type: FROM: standard forecast or significant change
Winds: from the N (360 degrees) at 7 MPH (6 knots; 3.1 m/s)
gusting to 18 MPH (16 knots; 8.2 m/s)
Visibility: 6 or more miles 10+ km)
Ceiling: unknown
Clouds: missing
Weather: no significant weather forecast for this period

 AIRPORT MAP

 RUNWAY INFORMATION

 AIRPORT FREQUENCIES
Type APP Name APP Frequency 122.1 MHZ
Type TWR Name TWR Frequency 122.1 MHZ

 AIRPORT NEAR NAVIGATION AIDS
Type NDB Name Taraz Frequency 103 KHZ
Type NDB Name Taraz Frequency 103 KHZ



2018 Air Astana Virtual Airline